Jensen Beach, Florida
Current Conditions -  °F | °C
As of 6:47 PM on Thursday 18 Dec 2014 (Local Time) from KSUA Reporting Station
Few Clouds Few Clouds  
Wind Chill: 59°   Ceiling: Unl
Heat Index: 59°   Visibility: 10mi
Dew Point: 50°   Wind: 0mph
Humidity: 72%   Direction: NA
Pressure: 30.11"   Gusts: NA
Location:  27.26°N, 80.23°W
Report Text: KSUA 182347Z 00000KT 10SM FEW040 15/10 A3011
Loading
Personal Weather Stations






























Interactive Weather Map New forecast layout! Learn more

10-Day Weather Forecast

Advertisements
Track Severe Weather on mobile